sensor_id;sensor_type;location;lat;lon;timestamp;P1;durP1;ratioP1;P2;durP2;ratioP2
44358;SDS011;30077;52.474;13.326;2023-06-14T00:04:45;7.80;;;4.10;;
44358;SDS011;30077;52.474;13.326;2023-06-14T00:09:48;8.30;;;3.58;;
44358;SDS011;30077;52.474;13.326;2023-06-14T00:14:48;6.20;;;3.67;;
44358;SDS011;30077;52.474;13.326;2023-06-14T00:19:49;5.63;;;3.80;;
44358;SDS011;30077;52.474;13.326;2023-06-14T00:24:51;5.80;;;3.80;;
44358;SDS011;30077;52.474;13.326;2023-06-14T00:29:52;5.80;;;4.07;;
44358;SDS011;30077;52.474;13.326;2023-06-14T00:34:53;5.68;;;4.25;;
44358;SDS011;30077;52.474;13.326;2023-06-14T00:39:53;5.80;;;4.18;;
44358;SDS011;30077;52.474;13.326;2023-06-14T00:44:54;7.63;;;3.78;;
44358;SDS011;30077;52.474;13.326;2023-06-14T00:49:55;4.22;;;3.83;;
44358;SDS011;30077;52.474;13.326;2023-06-14T00:54:57;7.63;;;4.38;;
44358;SDS011;30077;52.474;13.326;2023-06-14T00:59:58;8.35;;;4.15;;
44358;SDS011;30077;52.474;13.326;2023-06-14T01:04:59;6.40;;;4.63;;
44358;SDS011;30077;52.474;13.326;2023-06-14T01:10:08;7.28;;;4.43;;
44358;SDS011;30077;52.474;13.326;2023-06-14T01:15:51;8.35;;;5.20;;
44358;SDS011;30077;52.474;13.326;2023-06-14T01:20:52;9.10;;;5.53;;
44358;SDS011;30077;52.474;13.326;2023-06-14T01:25:55;7.97;;;5.68;;
44358;SDS011;30077;52.474;13.326;2023-06-14T01:30:56;7.30;;;5.78;;
44358;SDS011;30077;52.474;13.326;2023-06-14T01:35:57;9.20;;;5.40;;
44358;SDS011;30077;52.474;13.326;2023-06-14T01:40:59;7.47;;;6.07;;
44358;SDS011;30077;52.474;13.326;2023-06-14T01:46:01;10.07;;;5.95;;
44358;SDS011;30077;52.474;13.326;2023-06-14T01:51:03;10.30;;;6.23;;
44358;SDS011;30077;52.474;13.326;2023-06-14T01:56:05;7.65;;;5.78;;
44358;SDS011;30077;52.474;13.326;2023-06-14T02:01:06;7.93;;;5.78;;
44358;SDS011;30077;52.474;13.326;2023-06-14T02:06:07;11.13;;;6.32;;
44358;SDS011;30077;52.474;13.326;2023-06-14T02:11:07;6.88;;;5.82;;
44358;SDS011;30077;52.474;13.326;2023-06-14T02:16:08;9.38;;;6.10;;
44358;SDS011;30077;52.474;13.326;2023-06-14T02:21:09;8.98;;;5.82;;
44358;SDS011;30077;52.474;13.326;2023-06-14T02:26:10;7.15;;;6.22;;
44358;SDS011;30077;52.474;13.326;2023-06-14T02:31:10;12.38;;;6.28;;
44358;SDS011;30077;52.474;13.326;2023-06-14T02:36:11;10.98;;;7.45;;
44358;SDS011;30077;52.474;13.326;2023-06-14T02:41:12;9.18;;;6.78;;
44358;SDS011;30077;52.474;13.326;2023-06-14T02:46:12;9.77;;;6.85;;
44358;SDS011;30077;52.474;13.326;2023-06-14T02:51:13;9.55;;;6.93;;
44358;SDS011;30077;52.474;13.326;2023-06-14T02:56:14;13.02;;;7.55;;
44358;SDS011;30077;52.474;13.326;2023-06-14T03:01:17;8.38;;;6.38;;
44358;SDS011;30077;52.474;13.326;2023-06-14T03:06:19;15.60;;;7.10;;
44358;SDS011;30077;52.474;13.326;2023-06-14T03:11:20;12.07;;;7.00;;
44358;SDS011;30077;52.474;13.326;2023-06-14T03:16:21;9.35;;;6.75;;
44358;SDS011;30077;52.474;13.326;2023-06-14T03:21:24;12.50;;;6.97;;
44358;SDS011;30077;52.474;13.326;2023-06-14T03:26:25;11.03;;;7.73;;
44358;SDS011;30077;52.474;13.326;2023-06-14T03:31:28;13.95;;;7.47;;
44358;SDS011;30077;52.474;13.326;2023-06-14T03:36:32;10.90;;;7.28;;
44358;SDS011;30077;52.474;13.326;2023-06-14T03:41:33;11.20;;;7.22;;
44358;SDS011;30077;52.474;13.326;2023-06-14T03:46:34;11.82;;;8.00;;
44358;SDS011;30077;52.474;13.326;2023-06-14T03:51:34;12.10;;;7.75;;
44358;SDS011;30077;52.474;13.326;2023-06-14T03:56:35;12.52;;;8.13;;
44358;SDS011;30077;52.474;13.326;2023-06-14T04:01:36;11.07;;;8.07;;
44358;SDS011;30077;52.474;13.326;2023-06-14T04:06:37;15.43;;;8.73;;
44358;SDS011;30077;52.474;13.326;2023-06-14T04:11:37;12.25;;;8.27;;
44358;SDS011;30077;52.474;13.326;2023-06-14T04:16:38;9.55;;;7.43;;
44358;SDS011;30077;52.474;13.326;2023-06-14T04:21:39;10.82;;;8.55;;
44358;SDS011;30077;52.474;13.326;2023-06-14T04:26:41;12.07;;;8.60;;
44358;SDS011;30077;52.474;13.326;2023-06-14T04:31:45;12.57;;;8.30;;
44358;SDS011;30077;52.474;13.326;2023-06-14T04:41:53;11.32;;;8.18;;
44358;SDS011;30077;52.474;13.326;2023-06-14T04:46:57;12.73;;;9.10;;
44358;SDS011;30077;52.474;13.326;2023-06-14T04:51:58;10.17;;;8.40;;
44358;SDS011;30077;52.474;13.326;2023-06-14T04:57:01;17.98;;;8.70;;
44358;SDS011;30077;52.474;13.326;2023-06-14T05:02:02;12.27;;;8.32;;
44358;SDS011;30077;52.474;13.326;2023-06-14T05:07:03;12.77;;;7.40;;
44358;SDS011;30077;52.474;13.326;2023-06-14T05:12:06;12.73;;;7.75;;
44358;SDS011;30077;52.474;13.326;2023-06-14T05:17:10;7.88;;;6.80;;
44358;SDS011;30077;52.474;13.326;2023-06-14T05:22:10;15.43;;;7.45;;
44358;SDS011;30077;52.474;13.326;2023-06-14T05:27:11;10.60;;;7.57;;
44358;SDS011;30077;52.474;13.326;2023-06-14T05:32:13;12.30;;;7.43;;
44358;SDS011;30077;52.474;13.326;2023-06-14T05:37:14;10.68;;;8.60;;
44358;SDS011;30077;52.474;13.326;2023-06-14T05:42:15;9.32;;;7.15;;
44358;SDS011;30077;52.474;13.326;2023-06-14T05:47:16;13.98;;;7.53;;
44358;SDS011;30077;52.474;13.326;2023-06-14T05:52:16;15.00;;;7.70;;
44358;SDS011;30077;52.474;13.326;2023-06-14T05:57:17;18.73;;;8.57;;
44358;SDS011;30077;52.474;13.326;2023-06-14T06:02:18;15.82;;;8.65;;
44358;SDS011;30077;52.474;13.326;2023-06-14T06:07:19;14.80;;;8.82;;
44358;SDS011;30077;52.474;13.326;2023-06-14T06:12:19;12.88;;;8.55;;
44358;SDS011;30077;52.474;13.326;2023-06-14T06:17:20;17.17;;;9.90;;
44358;SDS011;30077;52.474;13.326;2023-06-14T06:22:22;13.63;;;9.40;;
44358;SDS011;30077;52.474;13.326;2023-06-14T06:27:23;16.23;;;9.38;;
44358;SDS011;30077;52.474;13.326;2023-06-14T06:32:24;11.90;;;9.48;;
44358;SDS011;30077;52.474;13.326;2023-06-14T06:37:25;15.88;;;9.35;;
44358;SDS011;30077;52.474;13.326;2023-06-14T06:42:25;14.75;;;10.32;;
44358;SDS011;30077;52.474;13.326;2023-06-14T06:47:26;14.85;;;9.35;;
44358;SDS011;30077;52.474;13.326;2023-06-14T06:52:27;10.93;;;8.35;;
44358;SDS011;30077;52.474;13.326;2023-06-14T06:57:29;13.50;;;8.53;;
44358;SDS011;30077;52.474;13.326;2023-06-14T07:02:29;14.63;;;8.30;;
44358;SDS011;30077;52.474;13.326;2023-06-14T07:07:30;13.18;;;8.32;;
44358;SDS011;30077;52.474;13.326;2023-06-14T07:12:31;14.55;;;8.63;;
44358;SDS011;30077;52.474;13.326;2023-06-14T07:17:33;14.37;;;9.37;;
44358;SDS011;30077;52.474;13.326;2023-06-14T07:22:34;10.27;;;8.50;;
44358;SDS011;30077;52.474;13.326;2023-06-14T07:27:35;13.70;;;8.20;;
44358;SDS011;30077;52.474;13.326;2023-06-14T07:32:36;13.55;;;8.20;;
44358;SDS011;30077;52.474;13.326;2023-06-14T07:37:37;11.30;;;6.97;;
44358;SDS011;30077;52.474;13.326;2023-06-14T07:42:37;12.90;;;8.13;;
44358;SDS011;30077;52.474;13.326;2023-06-14T07:47:38;11.30;;;8.27;;
44358;SDS011;30077;52.474;13.326;2023-06-14T07:52:39;10.68;;;7.38;;
44358;SDS011;30077;52.474;13.326;2023-06-14T07:57:40;18.00;;;6.60;;
44358;SDS011;30077;52.474;13.326;2023-06-14T08:02:43;13.70;;;8.07;;
44358;SDS011;30077;52.474;13.326;2023-06-14T08:07:44;10.57;;;6.20;;
44358;SDS011;30077;52.474;13.326;2023-06-14T08:12:45;10.02;;;5.68;;
44358;SDS011;30077;52.474;13.326;2023-06-14T08:17:46;9.60;;;6.45;;
44358;SDS011;30077;52.474;13.326;2023-06-14T08:22:47;10.82;;;6.30;;
44358;SDS011;30077;52.474;13.326;2023-06-14T08:27:48;11.88;;;5.93;;
44358;SDS011;30077;52.474;13.326;2023-06-14T08:32:50;7.00;;;6.13;;
44358;SDS011;30077;52.474;13.326;2023-06-14T08:37:51;10.27;;;5.80;;
44358;SDS011;30077;52.474;13.326;2023-06-14T08:42:54;9.25;;;5.38;;
44358;SDS011;30077;52.474;13.326;2023-06-14T08:47:55;6.60;;;5.85;;
44358;SDS011;30077;52.474;13.326;2023-06-14T08:53:00;10.98;;;5.03;;
44358;SDS011;30077;52.474;13.326;2023-06-14T08:58:02;9.60;;;5.10;;
44358;SDS011;30077;52.474;13.326;2023-06-14T09:03:07;9.95;;;4.78;;
44358;SDS011;30077;52.474;13.326;2023-06-14T09:08:13;11.23;;;4.95;;
44358;SDS011;30077;52.474;13.326;2023-06-14T09:13:13;12.80;;;4.80;;
44358;SDS011;30077;52.474;13.326;2023-06-14T09:18:14;6.78;;;4.63;;
44358;SDS011;30077;52.474;13.326;2023-06-14T09:23:20;14.00;;;6.00;;
44358;SDS011;30077;52.474;13.326;2023-06-14T09:28:26;7.30;;;5.00;;
44358;SDS011;30077;52.474;13.326;2023-06-14T09:33:27;8.10;;;5.40;;
44358;SDS011;30077;52.474;13.326;2023-06-14T09:38:28;13.82;;;4.82;;
44358;SDS011;30077;52.474;13.326;2023-06-14T09:43:29;10.10;;;4.70;;
44358;SDS011;30077;52.474;13.326;2023-06-14T09:48:30;10.65;;;4.70;;
44358;SDS011;30077;52.474;13.326;2023-06-14T09:53:31;8.20;;;5.05;;
44358;SDS011;30077;52.474;13.326;2023-06-14T09:58:34;14.82;;;4.55;;
44358;SDS011;30077;52.474;13.326;2023-06-14T10:03:39;11.25;;;5.80;;
44358;SDS011;30077;52.474;13.326;2023-06-14T10:08:40;12.10;;;5.43;;
44358;SDS011;30077;52.474;13.326;2023-06-14T10:13:41;16.70;;;5.78;;
44358;SDS011;30077;52.474;13.326;2023-06-14T10:24:12;11.02;;;5.97;;
44358;SDS011;30077;52.474;13.326;2023-06-14T10:29:16;7.68;;;5.30;;
44358;SDS011;30077;52.474;13.326;2023-06-14T10:34:23;13.48;;;5.88;;
44358;SDS011;30077;52.474;13.326;2023-06-14T10:44:31;11.25;;;5.25;;
44358;SDS011;30077;52.474;13.326;2023-06-14T10:49:41;11.10;;;4.90;;
44358;SDS011;30077;52.474;13.326;2023-06-14T11:00:18;8.45;;;5.05;;
44358;SDS011;30077;52.474;13.326;2023-06-14T11:05:26;9.23;;;5.20;;
44358;SDS011;30077;52.474;13.326;2023-06-14T11:10:38;10.88;;;6.03;;
44358;SDS011;30077;52.474;13.326;2023-06-14T11:15:43;12.13;;;4.95;;
44358;SDS011;30077;52.474;13.326;2023-06-14T11:20:46;10.38;;;5.13;;
44358;SDS011;30077;52.474;13.326;2023-06-14T11:25:53;10.95;;;5.43;;
44358;SDS011;30077;52.474;13.326;2023-06-14T11:31:01;9.07;;;5.50;;
44358;SDS011;30077;52.474;13.326;2023-06-14T11:36:03;8.20;;;4.70;;
44358;SDS011;30077;52.474;13.326;2023-06-14T11:41:08;9.48;;;5.10;;
44358;SDS011;30077;52.474;13.326;2023-06-14T11:46:12;14.43;;;4.95;;
44358;SDS011;30077;52.474;13.326;2023-06-14T11:51:15;9.45;;;5.22;;
44358;SDS011;30077;52.474;13.326;2023-06-14T11:56:16;8.18;;;4.95;;
44358;SDS011;30077;52.474;13.326;2023-06-14T12:01:17;15.45;;;5.40;;
44358;SDS011;30077;52.474;13.326;2023-06-14T12:06:25;9.18;;;5.35;;
44358;SDS011;30077;52.474;13.326;2023-06-14T12:11:36;10.23;;;5.25;;
44358;SDS011;30077;52.474;13.326;2023-06-14T12:16:39;14.23;;;5.05;;
44358;SDS011;30077;52.474;13.326;2023-06-14T12:21:42;5.55;;;4.40;;
44358;SDS011;30077;52.474;13.326;2023-06-14T12:26:48;14.50;;;5.65;;
44358;SDS011;30077;52.474;13.326;2023-06-14T12:31:52;8.32;;;5.25;;
44358;SDS011;30077;52.474;13.326;2023-06-14T12:36:54;11.07;;;5.32;;
44358;SDS011;30077;52.474;13.326;2023-06-14T12:41:55;6.38;;;5.13;;
44358;SDS011;30077;52.474;13.326;2023-06-14T12:46:56;11.55;;;5.28;;
44358;SDS011;30077;52.474;13.326;2023-06-14T12:51:56;12.05;;;5.28;;
44358;SDS011;30077;52.474;13.326;2023-06-14T12:56:57;9.60;;;5.07;;
44358;SDS011;30077;52.474;13.326;2023-06-14T13:01:59;11.90;;;5.05;;
44358;SDS011;30077;52.474;13.326;2023-06-14T13:07:28;11.35;;;4.68;;
44358;SDS011;30077;52.474;13.326;2023-06-14T13:12:29;9.45;;;4.68;;
44358;SDS011;30077;52.474;13.326;2023-06-14T13:17:30;9.07;;;5.13;;
44358;SDS011;30077;52.474;13.326;2023-06-14T13:22:33;13.90;;;5.35;;
44358;SDS011;30077;52.474;13.326;2023-06-14T13:27:34;10.13;;;4.57;;
44358;SDS011;30077;52.474;13.326;2023-06-14T13:32:35;11.13;;;4.47;;
44358;SDS011;30077;52.474;13.326;2023-06-14T13:37:36;11.13;;;4.63;;
44358;SDS011;30077;52.474;13.326;2023-06-14T13:42:37;10.63;;;5.20;;
44358;SDS011;30077;52.474;13.326;2023-06-14T13:47:37;7.90;;;5.10;;
44358;SDS011;30077;52.474;13.326;2023-06-14T13:52:38;10.15;;;4.18;;
44358;SDS011;30077;52.474;13.326;2023-06-14T13:57:39;14.98;;;4.43;;
44358;SDS011;30077;52.474;13.326;2023-06-14T14:02:39;9.00;;;4.60;;
44358;SDS011;30077;52.474;13.326;2023-06-14T14:07:40;16.05;;;5.15;;
44358;SDS011;30077;52.474;13.326;2023-06-14T14:12:41;5.82;;;4.70;;
44358;SDS011;30077;52.474;13.326;2023-06-14T14:17:41;9.07;;;4.68;;
44358;SDS011;30077;52.474;13.326;2023-06-14T14:22:42;9.18;;;4.55;;
44358;SDS011;30077;52.474;13.326;2023-06-14T14:27:43;12.80;;;4.63;;
44358;SDS011;30077;52.474;13.326;2023-06-14T14:32:43;6.47;;;4.85;;
44358;SDS011;30077;52.474;13.326;2023-06-14T14:37:44;9.63;;;4.80;;
44358;SDS011;30077;52.474;13.326;2023-06-14T14:42:45;11.25;;;5.75;;
44358;SDS011;30077;52.474;13.326;2023-06-14T14:47:45;14.82;;;5.50;;
44358;SDS011;30077;52.474;13.326;2023-06-14T14:52:46;9.75;;;5.25;;
44358;SDS011;30077;52.474;13.326;2023-06-14T14:57:48;7.28;;;5.10;;
44358;SDS011;30077;52.474;13.326;2023-06-14T15:07:50;16.08;;;4.97;;
44358;SDS011;30077;52.474;13.326;2023-06-14T15:12:50;12.55;;;4.60;;
44358;SDS011;30077;52.474;13.326;2023-06-14T15:17:51;11.90;;;5.60;;
44358;SDS011;30077;52.474;13.326;2023-06-14T15:22:52;9.23;;;4.97;;
44358;SDS011;30077;52.474;13.326;2023-06-14T15:27:59;10.05;;;5.43;;
44358;SDS011;30077;52.474;13.326;2023-06-14T15:33:01;10.98;;;5.05;;
44358;SDS011;30077;52.474;13.326;2023-06-14T15:38:01;10.77;;;4.78;;
44358;SDS011;30077;52.474;13.326;2023-06-14T15:43:02;15.18;;;5.32;;
44358;SDS011;30077;52.474;13.326;2023-06-14T15:48:03;8.55;;;4.68;;
44358;SDS011;30077;52.474;13.326;2023-06-14T15:53:04;13.63;;;4.88;;
44358;SDS011;30077;52.474;13.326;2023-06-14T15:58:05;13.30;;;4.25;;
44358;SDS011;30077;52.474;13.326;2023-06-14T16:03:06;7.18;;;4.60;;
44358;SDS011;30077;52.474;13.326;2023-06-14T16:08:06;9.88;;;5.15;;
44358;SDS011;30077;52.474;13.326;2023-06-14T16:13:07;12.00;;;5.05;;
44358;SDS011;30077;52.474;13.326;2023-06-14T16:18:08;10.82;;;4.22;;
44358;SDS011;30077;52.474;13.326;2023-06-14T16:23:08;11.38;;;4.75;;
44358;SDS011;30077;52.474;13.326;2023-06-14T16:28:09;9.13;;;4.75;;
44358;SDS011;30077;52.474;13.326;2023-06-14T16:33:10;10.15;;;4.57;;
44358;SDS011;30077;52.474;13.326;2023-06-14T16:38:10;12.40;;;5.18;;
44358;SDS011;30077;52.474;13.326;2023-06-14T16:43:11;12.52;;;4.55;;
44358;SDS011;30077;52.474;13.326;2023-06-14T16:48:12;9.65;;;4.78;;
44358;SDS011;30077;52.474;13.326;2023-06-14T16:53:12;13.48;;;5.07;;
44358;SDS011;30077;52.474;13.326;2023-06-14T16:58:14;6.38;;;4.38;;
44358;SDS011;30077;52.474;13.326;2023-06-14T17:03:15;10.50;;;4.97;;
44358;SDS011;30077;52.474;13.326;2023-06-14T17:08:16;6.15;;;4.65;;
44358;SDS011;30077;52.474;13.326;2023-06-14T17:18:20;9.25;;;4.60;;
44358;SDS011;30077;52.474;13.326;2023-06-14T17:23:20;13.77;;;4.90;;
44358;SDS011;30077;52.474;13.326;2023-06-14T17:28:21;6.78;;;4.03;;
44358;SDS011;30077;52.474;13.326;2023-06-14T17:33:22;14.00;;;5.40;;
44358;SDS011;30077;52.474;13.326;2023-06-14T17:38:22;9.90;;;5.10;;
44358;SDS011;30077;52.474;13.326;2023-06-14T17:43:25;7.45;;;4.22;;
44358;SDS011;30077;52.474;13.326;2023-06-14T17:48:25;10.05;;;4.50;;
44358;SDS011;30077;52.474;13.326;2023-06-14T17:53:26;10.63;;;4.95;;
44358;SDS011;30077;52.474;13.326;2023-06-14T17:58:27;12.23;;;5.10;;
44358;SDS011;30077;52.474;13.326;2023-06-14T18:03:29;11.23;;;4.90;;
44358;SDS011;30077;52.474;13.326;2023-06-14T18:08:30;11.50;;;4.40;;
44358;SDS011;30077;52.474;13.326;2023-06-14T18:13:31;9.15;;;5.22;;
44358;SDS011;30077;52.474;13.326;2023-06-14T18:18:32;13.10;;;5.13;;
44358;SDS011;30077;52.474;13.326;2023-06-14T18:23:33;12.35;;;4.90;;
44358;SDS011;30077;52.474;13.326;2023-06-14T18:28:34;9.60;;;5.28;;
44358;SDS011;30077;52.474;13.326;2023-06-14T18:33:36;11.13;;;5.13;;
44358;SDS011;30077;52.474;13.326;2023-06-14T18:38:36;17.90;;;5.38;;
44358;SDS011;30077;52.474;13.326;2023-06-14T18:43:37;12.43;;;5.15;;
44358;SDS011;30077;52.474;13.326;2023-06-14T18:48:38;14.13;;;5.07;;
44358;SDS011;30077;52.474;13.326;2023-06-14T18:53:40;10.75;;;4.78;;
44358;SDS011;30077;52.474;13.326;2023-06-14T18:58:41;10.77;;;5.35;;
44358;SDS011;30077;52.474;13.326;2023-06-14T19:03:42;9.60;;;5.35;;
44358;SDS011;30077;52.474;13.326;2023-06-14T19:08:43;9.75;;;4.68;;
44358;SDS011;30077;52.474;13.326;2023-06-14T19:13:43;14.68;;;5.75;;
44358;SDS011;30077;52.474;13.326;2023-06-14T19:18:44;11.15;;;5.28;;
44358;SDS011;30077;52.474;13.326;2023-06-14T19:23:44;14.98;;;5.22;;
44358;SDS011;30077;52.474;13.326;2023-06-14T19:28:46;8.95;;;4.95;;
44358;SDS011;30077;52.474;13.326;2023-06-14T19:33:47;8.93;;;5.05;;
44358;SDS011;30077;52.474;13.326;2023-06-14T19:38:47;13.73;;;5.30;;
44358;SDS011;30077;52.474;13.326;2023-06-14T19:43:48;14.75;;;5.40;;
44358;SDS011;30077;52.474;13.326;2023-06-14T19:48:49;12.80;;;4.85;;
44358;SDS011;30077;52.474;13.326;2023-06-14T19:53:50;7.15;;;4.60;;
44358;SDS011;30077;52.474;13.326;2023-06-14T19:58:54;11.82;;;5.75;;
44358;SDS011;30077;52.474;13.326;2023-06-14T20:03:56;8.75;;;4.78;;
44358;SDS011;30077;52.474;13.326;2023-06-14T20:08:57;10.85;;;4.53;;
44358;SDS011;30077;52.474;13.326;2023-06-14T20:13:57;8.95;;;5.70;;
44358;SDS011;30077;52.474;13.326;2023-06-14T20:18:59;7.17;;;4.80;;
44358;SDS011;30077;52.474;13.326;2023-06-14T20:24:00;8.05;;;4.88;;
44358;SDS011;30077;52.474;13.326;2023-06-14T20:29:02;17.53;;;5.40;;
44358;SDS011;30077;52.474;13.326;2023-06-14T20:34:03;11.25;;;4.80;;
44358;SDS011;30077;52.474;13.326;2023-06-14T20:39:04;7.80;;;4.63;;
44358;SDS011;30077;52.474;13.326;2023-06-14T20:44:06;9.30;;;4.93;;
44358;SDS011;30077;52.474;13.326;2023-06-14T20:54:11;9.37;;;3.97;;
44358;SDS011;30077;52.474;13.326;2023-06-14T20:59:12;8.68;;;4.75;;
44358;SDS011;30077;52.474;13.326;2023-06-14T21:04:12;10.88;;;5.00;;
44358;SDS011;30077;52.474;13.326;2023-06-14T21:09:13;9.52;;;4.88;;
44358;SDS011;30077;52.474;13.326;2023-06-14T21:14:13;9.00;;;4.78;;
44358;SDS011;30077;52.474;13.326;2023-06-14T21:19:14;14.45;;;4.72;;
44358;SDS011;30077;52.474;13.326;2023-06-14T21:24:15;11.57;;;4.95;;
44358;SDS011;30077;52.474;13.326;2023-06-14T21:29:16;11.52;;;4.97;;
44358;SDS011;30077;52.474;13.326;2023-06-14T21:34:16;14.27;;;5.30;;
44358;SDS011;30077;52.474;13.326;2023-06-14T21:39:17;13.65;;;4.93;;
44358;SDS011;30077;52.474;13.326;2023-06-14T21:44:18;11.45;;;5.05;;
44358;SDS011;30077;52.474;13.326;2023-06-14T21:49:19;10.65;;;4.68;;
44358;SDS011;30077;52.474;13.326;2023-06-14T21:54:20;13.38;;;4.90;;
44358;SDS011;30077;52.474;13.326;2023-06-14T21:59:20;7.82;;;5.38;;
44358;SDS011;30077;52.474;13.326;2023-06-14T22:04:21;11.45;;;5.30;;
44358;SDS011;30077;52.474;13.326;2023-06-14T22:09:22;10.15;;;5.22;;
44358;SDS011;30077;52.474;13.326;2023-06-14T22:14:25;12.63;;;5.32;;
44358;SDS011;30077;52.474;13.326;2023-06-14T22:19:29;9.98;;;4.65;;
44358;SDS011;30077;52.474;13.326;2023-06-14T22:24:30;10.57;;;4.95;;
44358;SDS011;30077;52.474;13.326;2023-06-14T22:29:32;9.80;;;4.93;;
44358;SDS011;30077;52.474;13.326;2023-06-14T22:34:32;8.15;;;4.93;;
44358;SDS011;30077;52.474;13.326;2023-06-14T22:39:38;12.82;;;5.10;;
44358;SDS011;30077;52.474;13.326;2023-06-14T22:44:39;7.53;;;4.85;;
44358;SDS011;30077;52.474;13.326;2023-06-14T22:49:40;11.73;;;4.78;;
44358;SDS011;30077;52.474;13.326;2023-06-14T22:54:41;8.70;;;4.75;;
44358;SDS011;30077;52.474;13.326;2023-06-14T22:59:44;12.63;;;5.00;;
44358;SDS011;30077;52.474;13.326;2023-06-14T23:04:45;8.43;;;4.68;;
44358;SDS011;30077;52.474;13.326;2023-06-14T23:09:47;12.25;;;5.47;;
44358;SDS011;30077;52.474;13.326;2023-06-14T23:14:48;12.07;;;5.03;;
44358;SDS011;30077;52.474;13.326;2023-06-14T23:19:49;9.52;;;5.35;;
44358;SDS011;30077;52.474;13.326;2023-06-14T23:24:50;9.57;;;5.45;;
44358;SDS011;30077;52.474;13.326;2023-06-14T23:29:52;8.52;;;5.40;;
44358;SDS011;30077;52.474;13.326;2023-06-14T23:34:53;10.13;;;5.13;;
44358;SDS011;30077;52.474;13.326;2023-06-14T23:39:55;7.60;;;4.73;;
44358;SDS011;30077;52.474;13.326;2023-06-14T23:44:57;12.85;;;5.10;;
44358;SDS011;30077;52.474;13.326;2023-06-14T23:50:01;12.55;;;5.07;;
44358;SDS011;30077;52.474;13.326;2023-06-14T23:55:02;9.63;;;5.63;;
